sensor_id;sensor_type;location;lat;lon;timestamp;P1;durP1;ratioP1;P2;durP2;ratioP2
80231;SDS011;69541;42.138;24.742;2023-04-24T00:01:10;3.47;;;2.70;;
80231;SDS011;69541;42.138;24.742;2023-04-24T00:03:37;3.00;;;2.70;;
80231;SDS011;69541;42.138;24.742;2023-04-24T00:06:04;5.30;;;3.05;;
80231;SDS011;69541;42.138;24.742;2023-04-24T00:08:31;2.90;;;2.60;;
80231;SDS011;69541;42.138;24.742;2023-04-24T00:10:57;4.15;;;2.70;;
80231;SDS011;69541;42.138;24.742;2023-04-24T00:13:23;3.05;;;2.75;;
80231;SDS011;69541;42.138;24.742;2023-04-24T00:15:49;3.03;;;2.70;;
80231;SDS011;69541;42.138;24.742;2023-04-24T00:18:15;3.00;;;2.70;;
80231;SDS011;69541;42.138;24.742;2023-04-24T00:20:40;3.38;;;3.00;;
80231;SDS011;69541;42.138;24.742;2023-04-24T00:23:08;3.67;;;2.88;;
80231;SDS011;69541;42.138;24.742;2023-04-24T00:25:34;3.78;;;2.80;;
80231;SDS011;69541;42.138;24.742;2023-04-24T00:28:00;3.28;;;2.80;;
80231;SDS011;69541;42.138;24.742;2023-04-24T00:30:26;3.22;;;2.80;;
80231;SDS011;69541;42.138;24.742;2023-04-24T00:32:51;3.17;;;2.88;;
80231;SDS011;69541;42.138;24.742;2023-04-24T00:35:17;4.05;;;2.72;;
80231;SDS011;69541;42.138;24.742;2023-04-24T00:37:45;3.25;;;2.83;;
80231;SDS011;69541;42.138;24.742;2023-04-24T00:40:11;3.47;;;2.80;;
80231;SDS011;69541;42.138;24.742;2023-04-24T00:42:37;5.85;;;2.80;;
80231;SDS011;69541;42.138;24.742;2023-04-24T00:45:03;3.55;;;2.70;;
80231;SDS011;69541;42.138;24.742;2023-04-24T00:47:30;3.00;;;2.70;;
80231;SDS011;69541;42.138;24.742;2023-04-24T00:49:58;3.60;;;2.75;;
80231;SDS011;69541;42.138;24.742;2023-04-24T00:52:26;3.25;;;2.70;;
80231;SDS011;69541;42.138;24.742;2023-04-24T00:54:51;3.58;;;3.05;;
80231;SDS011;69541;42.138;24.742;2023-04-24T00:57:17;5.53;;;2.72;;
80231;SDS011;69541;42.138;24.742;2023-04-24T00:59:43;3.65;;;3.08;;
80231;SDS011;69541;42.138;24.742;2023-04-24T01:02:09;3.75;;;2.85;;
80231;SDS011;69541;42.138;24.742;2023-04-24T01:04:35;3.45;;;2.80;;
80231;SDS011;69541;42.138;24.742;2023-04-24T01:07:02;3.55;;;2.90;;
80231;SDS011;69541;42.138;24.742;2023-04-24T01:09:29;3.13;;;2.70;;
80231;SDS011;69541;42.138;24.742;2023-04-24T01:11:55;3.60;;;2.80;;
80231;SDS011;69541;42.138;24.742;2023-04-24T01:14:21;4.90;;;3.00;;
80231;SDS011;69541;42.138;24.742;2023-04-24T01:16:47;3.53;;;3.05;;
80231;SDS011;69541;42.138;24.742;2023-04-24T01:19:15;3.83;;;3.00;;
80231;SDS011;69541;42.138;24.742;2023-04-24T01:21:43;3.83;;;2.80;;
80231;SDS011;69541;42.138;24.742;2023-04-24T01:24:11;5.10;;;2.80;;
80231;SDS011;69541;42.138;24.742;2023-04-24T01:26:37;3.05;;;2.60;;
80231;SDS011;69541;42.138;24.742;2023-04-24T01:29:02;3.30;;;2.72;;
80231;SDS011;69541;42.138;24.742;2023-04-24T01:31:28;3.95;;;2.90;;
80231;SDS011;69541;42.138;24.742;2023-04-24T01:33:54;3.95;;;2.90;;
80231;SDS011;69541;42.138;24.742;2023-04-24T01:36:21;3.17;;;2.88;;
80231;SDS011;69541;42.138;24.742;2023-04-24T01:38:48;3.58;;;2.90;;
80231;SDS011;69541;42.138;24.742;2023-04-24T01:41:14;4.07;;;2.95;;
80231;SDS011;69541;42.138;24.742;2023-04-24T01:43:39;4.35;;;2.85;;
80231;SDS011;69541;42.138;24.742;2023-04-24T01:46:05;3.38;;;2.90;;
80231;SDS011;69541;42.138;24.742;2023-04-24T01:48:31;3.20;;;2.90;;
80231;SDS011;69541;42.138;24.742;2023-04-24T01:50:58;3.90;;;3.05;;
80231;SDS011;69541;42.138;24.742;2023-04-24T01:53:24;3.58;;;2.85;;
80231;SDS011;69541;42.138;24.742;2023-04-24T01:55:50;4.47;;;3.13;;
80231;SDS011;69541;42.138;24.742;2023-04-24T01:58:15;4.63;;;2.90;;
80231;SDS011;69541;42.138;24.742;2023-04-24T02:00:41;3.15;;;2.85;;
80231;SDS011;69541;42.138;24.742;2023-04-24T02:03:07;3.85;;;3.10;;
80231;SDS011;69541;42.138;24.742;2023-04-24T02:05:33;4.45;;;2.72;;
80231;SDS011;69541;42.138;24.742;2023-04-24T02:07:58;3.20;;;2.90;;
80231;SDS011;69541;42.138;24.742;2023-04-24T02:10:24;3.83;;;3.00;;
80231;SDS011;69541;42.138;24.742;2023-04-24T02:12:50;3.20;;;2.90;;
80231;SDS011;69541;42.138;24.742;2023-04-24T02:15:16;2.92;;;2.60;;
80231;SDS011;69541;42.138;24.742;2023-04-24T02:17:42;3.75;;;3.00;;
80231;SDS011;69541;42.138;24.742;2023-04-24T02:20:10;3.35;;;2.90;;
80231;SDS011;69541;42.138;24.742;2023-04-24T02:22:36;3.20;;;2.90;;
80231;SDS011;69541;42.138;24.742;2023-04-24T02:25:04;3.65;;;3.00;;
80231;SDS011;69541;42.138;24.742;2023-04-24T02:27:30;3.53;;;2.72;;
80231;SDS011;69541;42.138;24.742;2023-04-24T02:29:56;3.13;;;2.83;;
80231;SDS011;69541;42.138;24.742;2023-04-24T02:32:22;3.85;;;2.97;;
80231;SDS011;69541;42.138;24.742;2023-04-24T02:34:48;3.75;;;2.97;;
80231;SDS011;69541;42.138;24.742;2023-04-24T02:37:13;3.80;;;2.90;;
80231;SDS011;69541;42.138;24.742;2023-04-24T02:39:39;5.75;;;3.03;;
80231;SDS011;69541;42.138;24.742;2023-04-24T02:42:04;4.28;;;3.10;;
80231;SDS011;69541;42.138;24.742;2023-04-24T02:44:33;4.68;;;3.10;;
80231;SDS011;69541;42.138;24.742;2023-04-24T02:46:59;4.18;;;2.90;;
80231;SDS011;69541;42.138;24.742;2023-04-24T02:49:24;3.60;;;3.00;;
80231;SDS011;69541;42.138;24.742;2023-04-24T02:51:51;3.75;;;3.00;;
80231;SDS011;69541;42.138;24.742;2023-04-24T02:54:16;3.20;;;2.90;;
80231;SDS011;69541;42.138;24.742;2023-04-24T02:56:42;3.33;;;2.80;;
80231;SDS011;69541;42.138;24.742;2023-04-24T02:59:08;3.53;;;2.90;;
80231;SDS011;69541;42.138;24.742;2023-04-24T03:01:33;3.45;;;2.85;;
80231;SDS011;69541;42.138;24.742;2023-04-24T03:03:59;3.85;;;3.10;;
80231;SDS011;69541;42.138;24.742;2023-04-24T03:06:25;4.07;;;2.92;;
80231;SDS011;69541;42.138;24.742;2023-04-24T03:08:51;3.63;;;2.90;;
80231;SDS011;69541;42.138;24.742;2023-04-24T03:11:17;4.30;;;3.05;;
80231;SDS011;69541;42.138;24.742;2023-04-24T03:13:43;5.72;;;3.25;;
80231;SDS011;69541;42.138;24.742;2023-04-24T03:16:08;4.20;;;3.00;;
80231;SDS011;69541;42.138;24.742;2023-04-24T03:18:34;3.90;;;3.05;;
80231;SDS011;69541;42.138;24.742;2023-04-24T03:21:00;4.03;;;3.00;;
80231;SDS011;69541;42.138;24.742;2023-04-24T03:23:26;5.05;;;3.10;;
80231;SDS011;69541;42.138;24.742;2023-04-24T03:25:51;3.67;;;3.00;;
80231;SDS011;69541;42.138;24.742;2023-04-24T03:28:20;4.75;;;2.95;;
80231;SDS011;69541;42.138;24.742;2023-04-24T03:30:45;3.47;;;2.83;;
80231;SDS011;69541;42.138;24.742;2023-04-24T03:33:11;3.83;;;3.05;;
80231;SDS011;69541;42.138;24.742;2023-04-24T03:35:37;6.47;;;3.22;;
80231;SDS011;69541;42.138;24.742;2023-04-24T03:38:03;4.47;;;3.20;;
80231;SDS011;69541;42.138;24.742;2023-04-24T03:40:29;2.97;;;2.72;;
80231;SDS011;69541;42.138;24.742;2023-04-24T03:42:55;3.63;;;2.90;;
80231;SDS011;69541;42.138;24.742;2023-04-24T03:45:21;3.28;;;2.90;;
80231;SDS011;69541;42.138;24.742;2023-04-24T03:47:46;3.88;;;3.15;;
80231;SDS011;69541;42.138;24.742;2023-04-24T03:50:12;7.35;;;3.05;;
80231;SDS011;69541;42.138;24.742;2023-04-24T03:52:38;4.35;;;3.00;;
80231;SDS011;69541;42.138;24.742;2023-04-24T03:55:03;3.38;;;3.00;;
80231;SDS011;69541;42.138;24.742;2023-04-24T03:57:33;5.18;;;3.08;;
80231;SDS011;69541;42.138;24.742;2023-04-24T03:59:58;4.28;;;3.20;;
80231;SDS011;69541;42.138;24.742;2023-04-24T04:02:24;4.38;;;3.00;;
80231;SDS011;69541;42.138;24.742;2023-04-24T04:04:50;4.57;;;3.10;;
80231;SDS011;69541;42.138;24.742;2023-04-24T04:07:16;22.40;;;5.47;;
80231;SDS011;69541;42.138;24.742;2023-04-24T04:09:42;15.82;;;6.50;;
80231;SDS011;69541;42.138;24.742;2023-04-24T04:12:07;14.32;;;6.82;;
80231;SDS011;69541;42.138;24.742;2023-04-24T04:14:33;13.38;;;7.60;;
80231;SDS011;69541;42.138;24.742;2023-04-24T04:16:58;14.60;;;7.57;;
80231;SDS011;69541;42.138;24.742;2023-04-24T04:19:24;23.60;;;8.35;;
80231;SDS011;69541;42.138;24.742;2023-04-24T04:21:50;13.73;;;8.48;;
80231;SDS011;69541;42.138;24.742;2023-04-24T04:24:18;17.90;;;7.55;;
80231;SDS011;69541;42.138;24.742;2023-04-24T04:26:45;14.52;;;7.70;;
80231;SDS011;69541;42.138;24.742;2023-04-24T04:29:12;12.38;;;7.30;;
80231;SDS011;69541;42.138;24.742;2023-04-24T04:31:38;21.70;;;7.70;;
80231;SDS011;69541;42.138;24.742;2023-04-24T04:34:04;12.27;;;6.95;;
80231;SDS011;69541;42.138;24.742;2023-04-24T04:36:32;18.50;;;7.22;;
80231;SDS011;69541;42.138;24.742;2023-04-24T04:39:01;18.67;;;8.57;;
80231;SDS011;69541;42.138;24.742;2023-04-24T04:41:28;17.95;;;8.23;;
80231;SDS011;69541;42.138;24.742;2023-04-24T04:43:53;16.13;;;7.88;;
80231;SDS011;69541;42.138;24.742;2023-04-24T04:46:19;20.98;;;8.40;;
80231;SDS011;69541;42.138;24.742;2023-04-24T04:48:45;17.20;;;8.65;;
80231;SDS011;69541;42.138;24.742;2023-04-24T04:51:11;15.23;;;8.45;;
80231;SDS011;69541;42.138;24.742;2023-04-24T04:53:36;19.75;;;8.10;;
80231;SDS011;69541;42.138;24.742;2023-04-24T04:56:02;14.65;;;8.10;;
80231;SDS011;69541;42.138;24.742;2023-04-24T04:58:28;21.60;;;8.38;;
80231;SDS011;69541;42.138;24.742;2023-04-24T05:00:56;17.70;;;7.80;;
80231;SDS011;69541;42.138;24.742;2023-04-24T05:03:22;22.55;;;8.15;;
80231;SDS011;69541;42.138;24.742;2023-04-24T05:05:48;18.80;;;8.10;;
80231;SDS011;69541;42.138;24.742;2023-04-24T05:08:13;17.67;;;7.93;;
80231;SDS011;69541;42.138;24.742;2023-04-24T05:10:39;19.00;;;8.32;;
80231;SDS011;69541;42.138;24.742;2023-04-24T05:13:05;25.85;;;10.05;;
80231;SDS011;69541;42.138;24.742;2023-04-24T05:15:33;18.60;;;8.75;;
80231;SDS011;69541;42.138;24.742;2023-04-24T05:17:59;18.80;;;9.60;;
80231;SDS011;69541;42.138;24.742;2023-04-24T05:20:25;17.98;;;8.45;;
80231;SDS011;69541;42.138;24.742;2023-04-24T05:22:50;19.98;;;8.45;;
80231;SDS011;69541;42.138;24.742;2023-04-24T05:25:16;24.15;;;8.85;;
80231;SDS011;69541;42.138;24.742;2023-04-24T05:27:42;14.80;;;8.00;;
80231;SDS011;69541;42.138;24.742;2023-04-24T05:30:08;21.42;;;7.90;;
80231;SDS011;69541;42.138;24.742;2023-04-24T05:32:34;18.58;;;7.93;;
80231;SDS011;69541;42.138;24.742;2023-04-24T05:35:00;22.83;;;9.00;;
80231;SDS011;69541;42.138;24.742;2023-04-24T05:37:26;16.40;;;8.18;;
80231;SDS011;69541;42.138;24.742;2023-04-24T05:39:52;18.20;;;8.13;;
80231;SDS011;69541;42.138;24.742;2023-04-24T05:42:17;14.70;;;8.45;;
80231;SDS011;69541;42.138;24.742;2023-04-24T05:44:43;19.05;;;9.40;;
80231;SDS011;69541;42.138;24.742;2023-04-24T05:47:08;20.27;;;8.10;;
80231;SDS011;69541;42.138;24.742;2023-04-24T05:49:34;19.67;;;7.95;;
80231;SDS011;69541;42.138;24.742;2023-04-24T05:52:00;20.05;;;7.93;;
80231;SDS011;69541;42.138;24.742;2023-04-24T05:54:25;21.92;;;8.18;;
80231;SDS011;69541;42.138;24.742;2023-04-24T05:56:54;16.77;;;7.72;;
80231;SDS011;69541;42.138;24.742;2023-04-24T05:59:20;21.02;;;7.90;;
80231;SDS011;69541;42.138;24.742;2023-04-24T06:01:46;15.70;;;7.38;;
80231;SDS011;69541;42.138;24.742;2023-04-24T06:04:12;26.77;;;7.22;;
80231;SDS011;69541;42.138;24.742;2023-04-24T06:06:40;25.08;;;7.85;;
80231;SDS011;69541;42.138;24.742;2023-04-24T06:09:06;27.67;;;7.78;;
80231;SDS011;69541;42.138;24.742;2023-04-24T06:11:32;20.88;;;7.32;;
80231;SDS011;69541;42.138;24.742;2023-04-24T06:13:58;17.67;;;7.03;;
80231;SDS011;69541;42.138;24.742;2023-04-24T06:16:23;26.85;;;6.90;;
80231;SDS011;69541;42.138;24.742;2023-04-24T06:18:49;13.73;;;6.10;;
80231;SDS011;69541;42.138;24.742;2023-04-24T06:21:15;13.40;;;6.40;;
80231;SDS011;69541;42.138;24.742;2023-04-24T06:23:42;15.60;;;6.38;;
80231;SDS011;69541;42.138;24.742;2023-04-24T06:26:07;21.65;;;6.65;;
80231;SDS011;69541;42.138;24.742;2023-04-24T06:28:33;12.15;;;5.95;;
80231;SDS011;69541;42.138;24.742;2023-04-24T06:30:59;13.65;;;5.68;;
80231;SDS011;69541;42.138;24.742;2023-04-24T06:33:24;14.45;;;5.93;;
80231;SDS011;69541;42.138;24.742;2023-04-24T06:35:50;15.45;;;5.97;;
80231;SDS011;69541;42.138;24.742;2023-04-24T06:38:16;11.88;;;5.38;;
80231;SDS011;69541;42.138;24.742;2023-04-24T06:40:41;14.90;;;6.25;;
80231;SDS011;69541;42.138;24.742;2023-04-24T06:43:07;12.30;;;5.40;;
80231;SDS011;69541;42.138;24.742;2023-04-24T06:45:33;13.20;;;5.13;;
80231;SDS011;69541;42.138;24.742;2023-04-24T06:47:58;13.75;;;5.38;;
80231;SDS011;69541;42.138;24.742;2023-04-24T06:50:24;11.18;;;5.47;;
80231;SDS011;69541;42.138;24.742;2023-04-24T06:52:50;12.48;;;5.47;;
80231;SDS011;69541;42.138;24.742;2023-04-24T06:55:16;12.60;;;5.97;;
80231;SDS011;69541;42.138;24.742;2023-04-24T06:57:41;11.98;;;5.82;;
80231;SDS011;69541;42.138;24.742;2023-04-24T07:00:09;12.40;;;5.28;;
80231;SDS011;69541;42.138;24.742;2023-04-24T07:02:35;10.43;;;5.10;;
80231;SDS011;69541;42.138;24.742;2023-04-24T07:05:00;11.93;;;5.13;;
80231;SDS011;69541;42.138;24.742;2023-04-24T07:07:26;11.30;;;5.10;;
80231;SDS011;69541;42.138;24.742;2023-04-24T07:09:52;12.35;;;5.35;;
80231;SDS011;69541;42.138;24.742;2023-04-24T07:12:19;12.00;;;5.15;;
80231;SDS011;69541;42.138;24.742;2023-04-24T07:14:46;13.15;;;5.47;;
80231;SDS011;69541;42.138;24.742;2023-04-24T07:17:12;11.50;;;5.07;;
80231;SDS011;69541;42.138;24.742;2023-04-24T07:19:38;12.55;;;5.70;;
80231;SDS011;69541;42.138;24.742;2023-04-24T07:22:04;11.55;;;5.10;;
80231;SDS011;69541;42.138;24.742;2023-04-24T07:24:30;9.30;;;5.03;;
80231;SDS011;69541;42.138;24.742;2023-04-24T07:26:57;11.60;;;5.30;;
80231;SDS011;69541;42.138;24.742;2023-04-24T07:29:23;12.65;;;5.13;;
80231;SDS011;69541;42.138;24.742;2023-04-24T07:31:49;10.45;;;5.30;;
80231;SDS011;69541;42.138;24.742;2023-04-24T07:34:15;10.20;;;4.75;;
80231;SDS011;69541;42.138;24.742;2023-04-24T07:36:41;9.07;;;4.88;;
80231;SDS011;69541;42.138;24.742;2023-04-24T07:39:09;7.50;;;4.70;;
80231;SDS011;69541;42.138;24.742;2023-04-24T07:41:35;9.35;;;5.03;;
80231;SDS011;69541;42.138;24.742;2023-04-24T07:44:00;9.98;;;4.88;;
80231;SDS011;69541;42.138;24.742;2023-04-24T07:46:26;9.55;;;5.00;;
80231;SDS011;69541;42.138;24.742;2023-04-24T07:48:54;12.50;;;4.97;;
80231;SDS011;69541;42.138;24.742;2023-04-24T07:51:20;10.45;;;5.07;;
80231;SDS011;69541;42.138;24.742;2023-04-24T07:53:46;10.15;;;5.07;;
80231;SDS011;69541;42.138;24.742;2023-04-24T07:56:12;10.35;;;4.80;;
80231;SDS011;69541;42.138;24.742;2023-04-24T07:58:38;11.52;;;4.80;;
80231;SDS011;69541;42.138;24.742;2023-04-24T08:01:03;8.63;;;4.80;;
80231;SDS011;69541;42.138;24.742;2023-04-24T08:03:29;7.47;;;4.60;;
80231;SDS011;69541;42.138;24.742;2023-04-24T08:05:55;9.98;;;4.70;;
80231;SDS011;69541;42.138;24.742;2023-04-24T08:08:22;7.70;;;4.63;;
80231;SDS011;69541;42.138;24.742;2023-04-24T08:10:48;9.20;;;4.80;;
80231;SDS011;69541;42.138;24.742;2023-04-24T08:13:14;10.15;;;4.50;;
80231;SDS011;69541;42.138;24.742;2023-04-24T08:15:40;9.15;;;4.45;;
80231;SDS011;69541;42.138;24.742;2023-04-24T08:18:05;7.38;;;4.47;;
80231;SDS011;69541;42.138;24.742;2023-04-24T08:20:31;5.97;;;4.25;;
80231;SDS011;69541;42.138;24.742;2023-04-24T08:22:57;9.50;;;5.10;;
80231;SDS011;69541;42.138;24.742;2023-04-24T08:25:23;7.97;;;4.82;;
80231;SDS011;69541;42.138;24.742;2023-04-24T08:27:50;7.55;;;4.60;;
80231;SDS011;69541;42.138;24.742;2023-04-24T08:30:16;6.93;;;4.57;;
80231;SDS011;69541;42.138;24.742;2023-04-24T08:32:42;9.18;;;4.70;;
80231;SDS011;69541;42.138;24.742;2023-04-24T08:35:07;11.27;;;4.97;;
80231;SDS011;69541;42.138;24.742;2023-04-24T08:37:34;7.53;;;4.65;;
80231;SDS011;69541;42.138;24.742;2023-04-24T11:42:16;19.02;;;7.95;;
80231;SDS011;69541;42.138;24.742;2023-04-24T11:44:42;21.15;;;8.00;;
80231;SDS011;69541;42.138;24.742;2023-04-24T11:47:08;27.17;;;9.10;;
80231;SDS011;69541;42.138;24.742;2023-04-24T11:49:36;18.05;;;7.80;;
80231;SDS011;69541;42.138;24.742;2023-04-24T11:52:02;23.50;;;7.55;;
80231;SDS011;69541;42.138;24.742;2023-04-24T11:54:29;19.65;;;7.40;;
80231;SDS011;69541;42.138;24.742;2023-04-24T11:56:55;16.00;;;6.93;;
80231;SDS011;69541;42.138;24.742;2023-04-24T11:59:21;16.05;;;6.63;;
80231;SDS011;69541;42.138;24.742;2023-04-24T12:01:48;19.25;;;7.38;;
80231;SDS011;69541;42.138;24.742;2023-04-24T12:04:15;18.00;;;7.25;;
80231;SDS011;69541;42.138;24.742;2023-04-24T12:09:26;16.38;;;6.75;;
80231;SDS011;69541;42.138;24.742;2023-04-24T12:11:53;18.42;;;6.90;;
80231;SDS011;69541;42.138;24.742;2023-04-24T12:14:22;18.95;;;6.97;;
80231;SDS011;69541;42.138;24.742;2023-04-24T12:16:49;17.60;;;6.72;;
80231;SDS011;69541;42.138;24.742;2023-04-24T12:19:20;15.00;;;6.63;;
80231;SDS011;69541;42.138;24.742;2023-04-24T12:21:59;13.32;;;6.40;;
80231;SDS011;69541;42.138;24.742;2023-04-24T12:26:56;16.38;;;6.60;;
80231;SDS011;69541;42.138;24.742;2023-04-24T12:29:23;15.65;;;6.47;;
80231;SDS011;69541;42.138;24.742;2023-04-24T12:31:49;15.18;;;6.38;;
80231;SDS011;69541;42.138;24.742;2023-04-24T12:34:19;14.77;;;5.93;;
80231;SDS011;69541;42.138;24.742;2023-04-24T12:36:46;10.10;;;5.72;;
80231;SDS011;69541;42.138;24.742;2023-04-24T12:39:16;12.35;;;5.85;;
80231;SDS011;69541;42.138;24.742;2023-04-24T12:41:55;16.10;;;6.22;;
80231;SDS011;69541;42.138;24.742;2023-04-24T12:44:28;14.82;;;5.60;;
80231;SDS011;69541;42.138;24.742;2023-04-24T12:46:56;19.55;;;6.32;;
80231;SDS011;69541;42.138;24.742;2023-04-24T12:49:21;15.10;;;6.25;;
80231;SDS011;69541;42.138;24.742;2023-04-24T12:51:47;14.98;;;5.95;;
80231;SDS011;69541;42.138;24.742;2023-04-24T12:54:12;12.25;;;5.72;;
80231;SDS011;69541;42.138;24.742;2023-04-24T12:56:38;10.85;;;5.70;;
80231;SDS011;69541;42.138;24.742;2023-04-24T12:59:04;12.30;;;5.78;;
80231;SDS011;69541;42.138;24.742;2023-04-24T13:01:30;12.68;;;5.20;;
80231;SDS011;69541;42.138;24.742;2023-04-24T13:03:56;12.85;;;5.63;;
80231;SDS011;69541;42.138;24.742;2023-04-24T13:06:21;12.88;;;5.72;;
80231;SDS011;69541;42.138;24.742;2023-04-24T13:08:47;14.13;;;5.72;;
80231;SDS011;69541;42.138;24.742;2023-04-24T13:11:13;14.73;;;5.35;;
80231;SDS011;69541;42.138;24.742;2023-04-24T13:13:39;11.00;;;5.25;;
80231;SDS011;69541;42.138;24.742;2023-04-24T13:16:05;10.88;;;5.10;;
80231;SDS011;69541;42.138;24.742;2023-04-24T13:18:30;9.95;;;5.22;;
80231;SDS011;69541;42.138;24.742;2023-04-24T13:20:56;18.83;;;5.18;;
80231;SDS011;69541;42.138;24.742;2023-04-24T13:23:22;9.40;;;5.20;;
80231;SDS011;69541;42.138;24.742;2023-04-24T13:25:48;8.45;;;4.70;;
80231;SDS011;69541;42.138;24.742;2023-04-24T13:28:14;10.52;;;5.35;;
80231;SDS011;69541;42.138;24.742;2023-04-24T13:30:40;8.30;;;4.85;;
80231;SDS011;69541;42.138;24.742;2023-04-24T13:33:06;9.52;;;5.10;;
80231;SDS011;69541;42.138;24.742;2023-04-24T13:35:31;11.50;;;5.32;;
80231;SDS011;69541;42.138;24.742;2023-04-24T13:37:57;11.02;;;4.93;;
80231;SDS011;69541;42.138;24.742;2023-04-24T13:40:23;10.68;;;4.75;;
80231;SDS011;69541;42.138;24.742;2023-04-24T13:42:49;8.43;;;4.72;;
80231;SDS011;69541;42.138;24.742;2023-04-24T13:45:15;9.15;;;4.95;;
80231;SDS011;69541;42.138;24.742;2023-04-24T13:47:41;9.40;;;5.15;;
80231;SDS011;69541;42.138;24.742;2023-04-24T13:50:07;10.93;;;5.15;;
80231;SDS011;69541;42.138;24.742;2023-04-24T13:52:34;12.75;;;5.20;;
80231;SDS011;69541;42.138;24.742;2023-04-24T13:55:00;9.40;;;4.72;;
80231;SDS011;69541;42.138;24.742;2023-04-24T13:57:25;8.95;;;4.80;;
80231;SDS011;69541;42.138;24.742;2023-04-24T13:59:52;11.80;;;4.88;;
80231;SDS011;69541;42.138;24.742;2023-04-24T14:02:18;10.20;;;4.70;;
80231;SDS011;69541;42.138;24.742;2023-04-24T14:04:44;8.60;;;4.40;;
80231;SDS011;69541;42.138;24.742;2023-04-24T14:07:09;9.15;;;4.90;;
80231;SDS011;69541;42.138;24.742;2023-04-24T14:09:35;10.63;;;4.65;;
80231;SDS011;69541;42.138;24.742;2023-04-24T14:12:01;9.20;;;4.45;;
80231;SDS011;69541;42.138;24.742;2023-04-24T14:14:27;8.70;;;4.30;;
80231;SDS011;69541;42.138;24.742;2023-04-24T14:16:54;8.93;;;4.72;;
80231;SDS011;69541;42.138;24.742;2023-04-24T14:19:20;10.88;;;4.40;;
80231;SDS011;69541;42.138;24.742;2023-04-24T14:21:45;5.68;;;4.10;;
80231;SDS011;69541;42.138;24.742;2023-04-24T14:24:11;10.00;;;4.63;;
80231;SDS011;69541;42.138;24.742;2023-04-24T14:26:37;9.10;;;4.60;;
80231;SDS011;69541;42.138;24.742;2023-04-24T14:29:02;10.10;;;4.32;;
80231;SDS011;69541;42.138;24.742;2023-04-24T14:31:28;12.60;;;4.65;;
80231;SDS011;69541;42.138;24.742;2023-04-24T14:33:54;6.85;;;4.32;;
80231;SDS011;69541;42.138;24.742;2023-04-24T14:36:19;7.43;;;4.43;;
80231;SDS011;69541;42.138;24.742;2023-04-24T14:38:45;8.32;;;4.00;;
80231;SDS011;69541;42.138;24.742;2023-04-24T14:41:11;6.22;;;4.03;;
80231;SDS011;69541;42.138;24.742;2023-04-24T14:43:36;7.80;;;4.45;;
80231;SDS011;69541;42.138;24.742;2023-04-24T14:46:02;7.78;;;4.32;;
80231;SDS011;69541;42.138;24.742;2023-04-24T14:48:28;6.78;;;4.20;;
80231;SDS011;69541;42.138;24.742;2023-04-24T14:50:55;8.30;;;4.10;;
80231;SDS011;69541;42.138;24.742;2023-04-24T14:55:53;8.18;;;4.22;;
80231;SDS011;69541;42.138;24.742;2023-04-24T14:58:19;6.07;;;4.15;;
80231;SDS011;69541;42.138;24.742;2023-04-24T15:00:45;7.32;;;4.30;;
80231;SDS011;69541;42.138;24.742;2023-04-24T15:03:10;7.43;;;3.83;;
80231;SDS011;69541;42.138;24.742;2023-04-24T15:05:36;8.27;;;4.65;;
80231;SDS011;69541;42.138;24.742;2023-04-24T15:08:02;9.30;;;4.28;;
80231;SDS011;69541;42.138;24.742;2023-04-24T15:10:27;6.55;;;4.13;;
80231;SDS011;69541;42.138;24.742;2023-04-24T15:12:54;16.08;;;4.38;;
80231;SDS011;69541;42.138;24.742;2023-04-24T15:15:20;14.75;;;4.53;;
80231;SDS011;69541;42.138;24.742;2023-04-24T15:17:46;21.20;;;4.32;;
80231;SDS011;69541;42.138;24.742;2023-04-24T15:20:11;12.30;;;4.10;;
80231;SDS011;69541;42.138;24.742;2023-04-24T15:22:37;15.18;;;4.25;;
80231;SDS011;69541;42.138;24.742;2023-04-24T15:25:03;9.15;;;4.72;;
80231;SDS011;69541;42.138;24.742;2023-04-24T15:27:42;10.75;;;4.05;;
80231;SDS011;69541;42.138;24.742;2023-04-24T15:30:10;14.05;;;4.18;;
80231;SDS011;69541;42.138;24.742;2023-04-24T15:32:36;11.02;;;3.95;;
80231;SDS011;69541;42.138;24.742;2023-04-24T15:35:02;14.05;;;4.10;;
80231;SDS011;69541;42.138;24.742;2023-04-24T15:37:28;12.13;;;4.25;;
80231;SDS011;69541;42.138;24.742;2023-04-24T15:39:54;9.27;;;3.88;;
80231;SDS011;69541;42.138;24.742;2023-04-24T15:42:20;17.73;;;4.07;;
80231;SDS011;69541;42.138;24.742;2023-04-24T15:44:46;12.30;;;4.10;;
80231;SDS011;69541;42.138;24.742;2023-04-24T15:47:11;14.77;;;3.95;;
80231;SDS011;69541;42.138;24.742;2023-04-24T15:49:39;13.43;;;4.50;;
80231;SDS011;69541;42.138;24.742;2023-04-24T15:52:05;14.82;;;4.30;;
80231;SDS011;69541;42.138;24.742;2023-04-24T15:54:30;14.38;;;4.03;;
80231;SDS011;69541;42.138;24.742;2023-04-24T15:56:56;7.50;;;3.60;;
80231;SDS011;69541;42.138;24.742;2023-04-24T15:59:22;9.95;;;3.80;;
80231;SDS011;69541;42.138;24.742;2023-04-24T16:01:48;8.45;;;3.80;;
80231;SDS011;69541;42.138;24.742;2023-04-24T16:04:14;10.95;;;4.00;;
80231;SDS011;69541;42.138;24.742;2023-04-24T16:06:40;5.25;;;3.60;;
80231;SDS011;69541;42.138;24.742;2023-04-24T16:09:06;7.72;;;3.92;;
80231;SDS011;69541;42.138;24.742;2023-04-24T16:11:32;10.20;;;3.90;;
80231;SDS011;69541;42.138;24.742;2023-04-24T16:14:00;8.45;;;3.90;;
80231;SDS011;69541;42.138;24.742;2023-04-24T16:16:26;11.70;;;3.78;;
80231;SDS011;69541;42.138;24.742;2023-04-24T16:18:52;6.60;;;3.83;;
80231;SDS011;69541;42.138;24.742;2023-04-24T16:21:18;13.00;;;3.97;;
80231;SDS011;69541;42.138;24.742;2023-04-24T16:23:45;6.88;;;3.50;;
80231;SDS011;69541;42.138;24.742;2023-04-24T16:26:10;9.38;;;3.90;;
80231;SDS011;69541;42.138;24.742;2023-04-24T16:28:36;6.65;;;3.75;;
80231;SDS011;69541;42.138;24.742;2023-04-24T16:31:03;8.25;;;3.70;;
80231;SDS011;69541;42.138;24.742;2023-04-24T16:33:28;7.05;;;3.75;;
80231;SDS011;69541;42.138;24.742;2023-04-24T16:35:55;11.52;;;3.80;;
80231;SDS011;69541;42.138;24.742;2023-04-24T16:38:22;10.10;;;3.72;;
80231;SDS011;69541;42.138;24.742;2023-04-24T16:40:50;8.80;;;3.70;;
80231;SDS011;69541;42.138;24.742;2023-04-24T16:43:17;7.72;;;3.65;;
80231;SDS011;69541;42.138;24.742;2023-04-24T16:45:43;7.90;;;3.88;;
80231;SDS011;69541;42.138;24.742;2023-04-24T16:48:08;9.32;;;3.40;;
80231;SDS011;69541;42.138;24.742;2023-04-24T16:50:35;6.32;;;3.45;;
80231;SDS011;69541;42.138;24.742;2023-04-24T16:53:02;7.65;;;3.80;;
80231;SDS011;69541;42.138;24.742;2023-04-24T16:55:27;8.32;;;4.00;;
80231;SDS011;69541;42.138;24.742;2023-04-24T16:57:53;5.53;;;3.95;;
80231;SDS011;69541;42.138;24.742;2023-04-24T17:00:20;5.38;;;3.60;;
80231;SDS011;69541;42.138;24.742;2023-04-24T17:02:46;5.78;;;3.20;;
80231;SDS011;69541;42.138;24.742;2023-04-24T17:05:14;5.95;;;3.55;;
80231;SDS011;69541;42.138;24.742;2023-04-24T17:07:40;5.70;;;3.45;;
80231;SDS011;69541;42.138;24.742;2023-04-24T17:10:06;9.05;;;3.97;;
80231;SDS011;69541;42.138;24.742;2023-04-24T17:12:35;5.20;;;3.65;;
80231;SDS011;69541;42.138;24.742;2023-04-24T17:15:01;4.53;;;3.50;;
80231;SDS011;69541;42.138;24.742;2023-04-24T17:17:27;6.47;;;3.47;;
80231;SDS011;69541;42.138;24.742;2023-04-24T17:19:53;7.60;;;3.55;;
80231;SDS011;69541;42.138;24.742;2023-04-24T17:22:19;6.95;;;3.65;;
80231;SDS011;69541;42.138;24.742;2023-04-24T17:24:44;7.88;;;3.47;;
80231;SDS011;69541;42.138;24.742;2023-04-24T17:27:10;5.70;;;3.30;;
80231;SDS011;69541;42.138;24.742;2023-04-24T17:29:36;5.88;;;3.80;;
80231;SDS011;69541;42.138;24.742;2023-04-24T17:32:02;6.40;;;3.47;;